createdAt,value
2014-09-19T00:01:00.658Z,72.32
2014-09-19T00:02:05.347Z,72.34
2014-09-19T00:03:10.052Z,72.15
2014-09-19T00:04:14.744Z,72.21
2014-09-19T00:05:20.027Z,71.18
2014-09-19T00:06:24.716Z,70.31
2014-09-19T00:07:29.703Z,71.07
2014-09-19T00:08:34.392Z,71.28
2014-09-19T00:09:39.082Z,71.62
2014-09-19T00:10:43.771Z,71.53
2014-09-19T00:11:48.476Z,71.29
2014-09-19T00:12:53.464Z,72.26
2014-09-19T00:13:58.152Z,72.45
2014-09-19T00:15:03.139Z,71.91
2014-09-19T00:16:08.126Z,71.99
2014-09-19T00:17:12.816Z,71.68
2014-09-19T00:18:17.505Z,71.7
2014-09-19T00:19:22.507Z,72
2014-09-19T00:20:27.181Z,72.01
2014-09-19T00:21:31.870Z,71.25
2014-09-19T00:22:36.576Z,70.91
2014-09-19T00:23:41.562Z,70.23
2014-09-19T00:24:46.250Z,70.32
2014-09-19T00:25:51.238Z,70.29
2014-09-19T00:26:55.927Z,70.95
2014-09-19T00:28:00.618Z,71.46
2014-09-19T00:29:05.306Z,71.13
2014-09-19T00:30:09.997Z,71.05
2014-09-19T00:31:14.686Z,71.71
2014-09-19T00:32:19.376Z,71.19
2014-09-19T00:33:24.065Z,70.54
2014-09-19T00:34:28.770Z,71.03
2014-09-19T00:35:33.460Z,70.66
2014-09-19T00:36:38.150Z,70.2
2014-09-19T00:37:43.136Z,70.59
2014-09-19T00:38:47.826Z,70.7
2014-09-19T00:39:52.516Z,71.51
2014-09-19T00:40:57.501Z,71.66
2014-09-19T00:42:02.192Z,71.07
2014-09-19T00:43:06.881Z,70.9
2014-09-19T00:44:11.571Z,71.63
2014-09-19T00:45:16.557Z,72.07
2014-09-19T00:46:21.247Z,72.67
2014-09-19T00:47:25.936Z,71.84
2014-09-19T00:48:30.922Z,71
2014-09-19T00:49:35.595Z,70.86
2014-09-19T00:50:40.286Z,70.7
2014-09-19T00:51:45.273Z,70.42
2014-09-19T00:52:49.962Z,71.09
2014-09-19T00:53:54.652Z,71.16
2014-09-19T00:54:59.341Z,71.66
2014-09-19T00:56:04.031Z,71.03
2014-09-19T00:57:08.720Z,71.5
2014-09-19T00:58:13.410Z,70.98
2014-09-19T00:59:18.099Z,70.75
2014-09-19T01:00:22.789Z,70.6
2014-09-19T01:01:27.478Z,70.86
2014-09-19T01:02:32.465Z,71.58
2014-09-19T01:03:37.155Z,71.67
2014-09-19T01:04:42.140Z,71.72
2014-09-19T01:05:46.829Z,71.47
2014-09-19T01:06:51.519Z,71.41
2014-09-19T01:07:56.208Z,71.61
2014-09-19T01:09:00.898Z,71.93
2014-09-19T01:10:05.884Z,71.28
2014-09-19T01:11:10.574Z,70.71
2014-09-19T01:12:15.263Z,70.49
2014-09-19T01:13:19.953Z,70.85
2014-09-19T01:14:24.644Z,71.33
2014-09-19T01:15:29.334Z,71.99
2014-09-19T01:16:34.023Z,71.94
2014-09-19T01:17:39.307Z,71.39
2014-09-19T01:18:44.027Z,70.9
2014-09-19T01:19:48.753Z,70.57
2014-09-19T01:20:53.775Z,71.15
2014-09-19T01:21:58.500Z,70.83
2014-09-19T01:23:03.226Z,70.53
2014-09-19T01:24:07.930Z,71.07
2014-09-19T01:25:12.633Z,70.76
2014-09-19T01:26:17.350Z,70.78
2014-09-19T01:27:22.052Z,70.8
2014-09-19T01:28:26.747Z,71.21
2014-09-19T01:29:31.441Z,71.72
2014-09-19T01:30:36.135Z,71.46
2014-09-19T01:31:40.831Z,71.5
2014-09-19T01:32:45.524Z,71.16
2014-09-19T01:33:50.514Z,71.57
2014-09-19T01:34:55.204Z,71.3
2014-09-19T01:36:00.194Z,70.75
2014-09-19T01:37:04.886Z,70.46
2014-09-19T01:38:09.576Z,70.48
2014-09-19T01:39:14.266Z,70.2
2014-09-19T01:40:18.956Z,71.22
2014-09-19T01:41:23.645Z,71.43
2014-09-19T01:42:28.336Z,71.06
2014-09-19T01:43:33.025Z,71.58
2014-09-19T01:44:38.012Z,71.48
2014-09-19T01:45:42.702Z,70.77
2014-09-19T01:46:47.393Z,70.13
2014-09-19T01:47:52.082Z,70.48
2014-09-19T01:48:57.067Z,69.93
2014-09-19T01:50:01.759Z,69.97
2014-09-19T01:51:06.447Z,70.12
2014-09-19T01:52:11.138Z,70.25
2014-09-19T01:53:15.826Z,70.12
2014-09-19T01:54:20.517Z,70.54
2014-09-19T01:55:25.502Z,70.54
2014-09-19T01:56:30.490Z,72.09
2014-09-19T01:57:35.180Z,72.26
2014-09-19T01:58:39.869Z,71.52
2014-09-19T01:59:44.544Z,70.74
2014-09-19T02:00:49.248Z,70.14
2014-09-19T02:01:53.938Z,70.04
2014-09-19T02:02:58.611Z,69.59
2014-09-19T02:04:03.302Z,70.28
2014-09-19T02:05:07.990Z,71.18
2014-09-19T02:06:12.681Z,71.19
2014-09-19T02:07:17.370Z,71.62
2014-09-19T02:08:22.356Z,71.5
2014-09-19T02:09:27.343Z,70.99
2014-09-19T02:10:32.031Z,70.29
2014-09-19T02:11:36.721Z,70.15
2014-09-19T02:12:41.708Z,69.93
2014-09-19T02:13:46.398Z,70.54
2014-09-19T02:14:51.087Z,70.79
2014-09-19T02:15:56.089Z,70.67
2014-09-19T02:17:00.779Z,70.3
2014-09-19T02:18:05.469Z,70.25
2014-09-19T02:19:10.158Z,70.6
2014-09-19T02:20:14.848Z,70.71
2014-09-19T02:21:19.538Z,70.96
2014-09-19T02:22:24.226Z,71.64
2014-09-19T02:23:29.214Z,71.69
2014-09-19T02:24:33.903Z,71.26
2014-09-19T02:25:38.889Z,71.31
2014-09-19T02:26:43.579Z,70.97
2014-09-19T02:27:48.283Z,71.39
2014-09-19T02:28:52.957Z,70.97
2014-09-19T02:29:57.646Z,71.41
2014-09-19T02:31:02.352Z,71.53
2014-09-19T02:32:07.041Z,71.71
2014-09-19T02:33:11.731Z,71.48
2014-09-19T02:34:16.420Z,71.33
2014-09-19T02:35:21.111Z,71.18
2014-09-19T02:36:25.800Z,71.25
2014-09-19T02:37:30.786Z,71.08
2014-09-19T02:38:35.493Z,71.58
2014-09-19T02:39:40.479Z,71.33
2014-09-19T02:40:45.183Z,71.11
2014-09-19T02:41:49.873Z,71.37
2014-09-19T02:42:54.859Z,71.36
2014-09-19T02:43:59.548Z,70.93
2014-09-19T02:45:04.238Z,71.18
2014-09-19T02:46:08.927Z,71.23
2014-09-19T02:47:13.914Z,71.12
2014-09-19T02:48:18.602Z,71.02
2014-09-19T02:49:23.294Z,71.15
2014-09-19T02:50:27.984Z,70.5
2014-09-19T02:51:32.674Z,70.96
2014-09-19T02:52:37.362Z,71.45
2014-09-19T02:53:42.052Z,70.82
2014-09-19T02:54:47.039Z,71
2014-09-19T02:55:51.729Z,71.44
2014-09-19T02:56:56.418Z,71.94
2014-09-19T02:58:01.405Z,71.62
2014-09-19T02:59:06.094Z,71.66
2014-09-19T03:00:11.081Z,71.74
2014-09-19T03:01:16.067Z,72.07
2014-09-19T03:02:20.756Z,71.92
2014-09-19T03:03:25.446Z,71.8
2014-09-19T03:04:30.135Z,71.74
2014-09-19T03:05:34.825Z,72.1
2014-09-19T03:06:39.499Z,72.16
2014-09-19T03:07:44.188Z,72.04
2014-09-19T03:08:48.878Z,72.25
2014-09-19T03:09:53.567Z,72.21
2014-09-19T03:10:58.257Z,72.35
2014-09-19T03:12:03.259Z,72.84
2014-09-19T03:13:07.947Z,72.3
2014-09-19T03:14:12.621Z,71.66
2014-09-19T03:15:17.326Z,72.44
2014-09-19T03:16:22.019Z,71.81
2014-09-19T03:17:27.005Z,72.02
2014-09-19T03:18:31.694Z,71.85
2014-09-19T03:19:36.384Z,72.38
2014-09-19T03:20:41.073Z,71.91
2014-09-19T03:21:45.763Z,71.98
2014-09-19T03:22:50.453Z,72
2014-09-19T03:23:55.439Z,71.35
2014-09-19T03:25:00.128Z,71.52
2014-09-19T03:26:04.818Z,71.57
2014-09-19T03:27:09.507Z,71.81
2014-09-19T03:28:14.197Z,72.27
2014-09-19T03:29:19.183Z,72.83
2014-09-19T03:30:23.862Z,72.91
2014-09-19T03:31:28.552Z,72.91
2014-09-19T03:32:33.241Z,72.73
2014-09-19T03:33:38.227Z,72.45
2014-09-19T03:34:42.933Z,73.65
2014-09-19T03:35:47.622Z,73.57
2014-09-19T03:36:52.608Z,73.5
2014-09-19T03:37:57.595Z,72.89
2014-09-19T03:39:02.284Z,72.9
2014-09-19T03:40:06.974Z,73.04
2014-09-19T03:41:11.662Z,73.17
2014-09-19T03:42:16.353Z,73.46
2014-09-19T03:43:21.044Z,72.65
2014-09-19T03:44:25.733Z,72.05
2014-09-19T03:45:30.422Z,72.59
2014-09-19T03:46:35.112Z,72.66
2014-09-19T03:47:40.098Z,72.39
2014-09-19T03:48:45.085Z,71.8
2014-09-19T03:49:49.758Z,72.4
2014-09-19T03:50:54.448Z,72.34
2014-09-19T03:51:59.433Z,72.46
2014-09-19T03:53:04.430Z,72.55
2014-09-19T03:54:09.121Z,72.49
2014-09-19T03:55:13.810Z,72.97
2014-09-19T03:56:18.500Z,72.72
2014-09-19T03:57:23.190Z,72.58
2014-09-19T03:58:27.880Z,72.45
2014-09-19T03:59:32.866Z,71.98
2014-09-19T04:00:37.556Z,72.04
2014-09-19T04:01:42.245Z,72.11
2014-09-19T04:02:46.935Z,71.52
2014-09-19T04:03:51.623Z,71.47
2014-09-19T04:04:56.314Z,71.5
2014-09-19T04:06:01.003Z,72.07
2014-09-19T04:07:05.692Z,72.66
2014-09-19T04:08:10.679Z,73.07
2014-09-19T04:09:15.665Z,73
2014-09-19T04:10:20.651Z,72.71
2014-09-19T04:11:25.342Z,73.09
2014-09-19T04:12:30.329Z,73.12
2014-09-19T04:13:35.018Z,72.51
2014-09-19T04:14:39.692Z,72.06
2014-09-19T04:15:44.397Z,72.33
2014-09-19T04:16:49.087Z,72.25
2014-09-19T04:17:53.776Z,72.26
2014-09-19T04:18:58.467Z,72.43
2014-09-19T04:20:03.155Z,72.55
2014-09-19T04:21:07.846Z,72.05
2014-09-19T04:22:12.831Z,71.97
2014-09-19T04:23:17.522Z,72.06
2014-09-19T04:24:22.227Z,72.73
2014-09-19T04:25:26.916Z,72.28
2014-09-19T04:26:30.918Z,73.02
2014-09-19T04:27:35.905Z,72.96
2014-09-19T04:28:40.594Z,73.25
2014-09-19T04:29:45.284Z,73.44
2014-09-19T04:30:49.972Z,73.19
2014-09-19T04:31:54.677Z,72.85
2014-09-19T04:32:59.398Z,73.18
2014-09-19T04:34:04.119Z,73.32
2014-09-19T04:35:09.136Z,73.56
2014-09-19T04:36:13.842Z,73
2014-09-19T04:37:18.562Z,72.92
2014-09-19T04:38:23.285Z,72.38
2014-09-19T04:39:28.584Z,72.93
2014-09-19T04:40:33.305Z,73.2
2014-09-19T04:41:38.604Z,73.34
2014-09-19T04:42:43.323Z,73.57
2014-09-19T04:43:48.044Z,73.14
2014-09-19T04:44:52.765Z,73.14
2014-09-19T04:45:57.486Z,73.9
2014-09-19T04:47:01.519Z,73.35
2014-09-19T04:48:06.240Z,73.13
2014-09-19T04:49:10.945Z,73.01
2014-09-19T04:50:16.259Z,73.05
2014-09-19T04:51:20.980Z,73.12
2014-09-19T04:52:25.984Z,72.91
2014-09-19T04:53:31.001Z,73.34
2014-09-19T04:54:35.707Z,73.55
2014-09-19T04:55:40.443Z,73.25
2014-09-19T04:56:45.163Z,73.47
2014-09-19T04:57:50.165Z,72.78
2014-09-19T04:58:54.854Z,72.7
2014-09-19T04:59:59.544Z,72.27
2014-09-19T05:01:04.233Z,72.15
2014-09-19T05:02:08.907Z,71.91
2014-09-19T05:03:13.598Z,71.83
2014-09-19T05:04:18.288Z,71.87
2014-09-19T05:05:22.978Z,71.98
2014-09-19T05:06:27.948Z,72.51
2014-09-19T05:07:32.637Z,73.62
2014-09-19T05:08:37.327Z,73.92
2014-09-19T05:09:42.001Z,73.76
2014-09-19T05:10:46.988Z,73.36
2014-09-19T05:11:51.676Z,72.61
2014-09-19T05:12:56.647Z,72.76
2014-09-19T05:14:01.336Z,72.41
2014-09-19T05:15:06.245Z,72.27
2014-09-19T05:16:11.012Z,72.34
2014-09-19T05:17:15.998Z,72.48
2014-09-19T05:18:20.688Z,72.59
2014-09-19T05:19:25.364Z,72.47
2014-09-19T05:20:30.053Z,72.38
2014-09-19T05:21:34.742Z,72.54
2014-09-19T05:22:39.432Z,72.76
2014-09-19T05:23:44.419Z,73.61
2014-09-19T05:24:49.108Z,73.46
2014-09-19T05:25:54.079Z,72.83
2014-09-19T05:26:59.065Z,72.02
2014-09-19T05:28:03.754Z,72.31
2014-09-19T05:29:09.037Z,73.27
2014-09-19T05:30:13.728Z,73.7
2014-09-19T05:31:18.417Z,73.49
2014-09-19T05:32:23.092Z,73.39
2014-09-19T05:33:28.078Z,72.99
2014-09-19T05:34:33.064Z,72.66
2014-09-19T05:35:37.753Z,72.64
2014-09-19T05:36:42.443Z,72.9
2014-09-19T05:37:47.117Z,73.51
2014-09-19T05:38:52.103Z,72.87
2014-09-19T05:39:56.793Z,72.35
2014-09-19T05:41:01.482Z,73.05
2014-09-19T05:42:06.172Z,72.72
2014-09-19T05:43:10.861Z,72.19
2014-09-19T05:44:15.551Z,71.41
2014-09-19T05:45:20.225Z,71.83
2014-09-19T05:46:24.916Z,72.33
2014-09-19T05:47:29.901Z,72.69
2014-09-19T05:48:34.591Z,73.12
2014-09-19T05:49:39.280Z,72.18
2014-09-19T05:50:43.970Z,71.63
2014-09-19T05:51:48.941Z,71.25
2014-09-19T05:52:53.646Z,70.68
2014-09-19T05:53:58.617Z,70.22
2014-09-19T05:55:03.306Z,70.01
2014-09-19T05:56:08.292Z,70.49
2014-09-19T05:57:12.982Z,71.22
2014-09-19T05:58:17.670Z,70.76
2014-09-19T05:59:22.658Z,69.91
2014-09-19T06:00:27.630Z,70.6
2014-09-19T06:01:32.319Z,70.63
2014-09-19T06:02:37.024Z,69.98
2014-09-19T06:03:41.715Z,69.1
2014-09-19T06:04:46.389Z,68.08
2014-09-19T06:05:51.078Z,67.52
2014-09-19T06:06:55.768Z,66.61
2014-09-19T06:08:00.441Z,67.44
2014-09-19T06:09:05.428Z,67.63
2014-09-19T06:10:10.117Z,67.08
2014-09-19T06:11:15.104Z,64.91
2014-09-19T06:12:19.779Z,63.23
2014-09-19T06:13:24.472Z,60.55
2014-09-19T06:14:29.162Z,59.43
2014-09-19T06:15:33.836Z,56.4
2014-09-19T06:16:38.822Z,56.08
2014-09-19T06:17:43.511Z,55.7
2014-09-19T06:18:48.185Z,57.16
2014-09-19T06:19:52.187Z,56.41
2014-09-19T06:20:56.878Z,55.45
2014-09-19T06:22:01.567Z,54.84
2014-09-19T06:23:06.240Z,54.03
2014-09-19T06:24:11.226Z,53.91
2014-09-19T06:25:15.916Z,55.87
2014-09-19T06:26:20.903Z,56.89
2014-09-19T06:27:25.592Z,57.56
2014-09-19T06:28:30.282Z,57.32
2014-09-19T06:29:34.971Z,57.36
2014-09-19T06:30:39.957Z,56.07
2014-09-19T06:31:44.648Z,53.42
2014-09-19T06:32:49.337Z,51.88
2014-09-19T06:33:54.322Z,49.87
2014-09-19T06:34:59.607Z,48.76
2014-09-19T06:36:04.296Z,50.27
2014-09-19T06:37:08.985Z,50.92
2014-09-19T06:38:13.659Z,50.52
2014-09-19T06:39:18.646Z,49.79
2014-09-19T06:40:23.335Z,50.53
2014-09-19T06:41:28.026Z,51.43
2014-09-19T06:42:33.012Z,50.77
2014-09-19T06:43:37.702Z,49.11
2014-09-19T06:44:42.391Z,49.08
2014-09-19T06:45:47.081Z,49.91
2014-09-19T06:46:52.067Z,51.66
2014-09-19T06:47:56.757Z,54.97
2014-09-19T06:49:01.446Z,57.55
2014-09-19T06:50:06.137Z,59.17
2014-09-19T06:51:11.122Z,59.26
2014-09-19T06:52:15.797Z,58.89
2014-09-19T06:53:20.783Z,54.07
2014-09-19T06:54:25.473Z,49.15
2014-09-19T06:55:30.162Z,50.88
2014-09-19T06:56:34.852Z,48.25
2014-09-19T06:57:39.540Z,49.04
2014-09-19T06:58:44.231Z,50.76
2014-09-19T06:59:48.920Z,53.95
2014-09-19T07:00:53.610Z,54.78
2014-09-19T07:01:58.315Z,55.08
2014-09-19T07:03:03.003Z,56.88
2014-09-19T07:04:07.693Z,58.72
2014-09-19T07:05:12.382Z,59.15
2014-09-19T07:06:17.072Z,56.78
2014-09-19T07:07:21.761Z,57.48
2014-09-19T07:08:26.451Z,58.42
2014-09-19T07:09:31.158Z,60.23
2014-09-19T07:10:36.160Z,62.41
2014-09-19T07:11:41.146Z,61.95
2014-09-19T07:12:45.836Z,62.41
2014-09-19T07:13:50.524Z,60.95
2014-09-19T07:14:55.214Z,62.67
2014-09-19T07:15:59.888Z,63.57
2014-09-19T07:17:04.874Z,63.22
2014-09-19T07:18:09.579Z,63.02
2014-09-19T07:19:14.270Z,62.78
2014-09-19T07:20:18.958Z,64.7
2014-09-19T07:21:23.945Z,63.22
2014-09-19T07:22:28.636Z,63.17
2014-09-19T07:23:33.326Z,63.33
2014-09-19T07:24:38.015Z,64.07
2014-09-19T07:25:43.002Z,63.5
2014-09-19T07:26:47.691Z,63.27
2014-09-19T07:27:52.381Z,62.41
2014-09-19T07:28:57.070Z,61.94
2014-09-19T07:30:01.759Z,62.36
2014-09-19T07:31:06.745Z,62.4
2014-09-19T07:32:11.434Z,62.1
2014-09-19T07:33:16.124Z,63.44
2014-09-19T07:34:21.110Z,62.82
2014-09-19T07:35:26.097Z,61.92
2014-09-19T07:36:31.085Z,62.99
2014-09-19T07:37:35.775Z,64.1
2014-09-19T07:38:40.464Z,63.21
2014-09-19T07:39:45.154Z,63.36
2014-09-19T07:40:49.843Z,63.47
2014-09-19T07:41:54.532Z,62.4
2014-09-19T07:42:59.221Z,63.31
2014-09-19T07:44:03.895Z,61.65
2014-09-19T07:45:08.881Z,62.53
2014-09-19T07:46:13.571Z,61.46
2014-09-19T07:47:18.260Z,63.06
2014-09-19T07:48:22.950Z,63.1
2014-09-19T07:49:27.923Z,62.89
2014-09-19T07:50:32.611Z,61.64
2014-09-19T07:51:37.598Z,61.72
2014-09-19T07:52:42.288Z,62.14
2014-09-19T07:53:46.977Z,62.53
2014-09-19T07:54:51.667Z,62.9
2014-09-19T07:55:56.341Z,61.29
2014-09-19T07:57:01.030Z,61.67
2014-09-19T07:58:06.016Z,61.96
2014-09-19T07:59:11.002Z,64.35
2014-09-19T08:00:15.676Z,63.41
2014-09-19T08:01:20.365Z,61.46
2014-09-19T08:02:25.055Z,61.33
2014-09-19T08:03:29.745Z,61.42
2014-09-19T08:04:34.420Z,62.44
2014-09-19T08:05:39.110Z,63.12
2014-09-19T08:06:43.799Z,63.75
2014-09-19T08:07:48.489Z,62.77
2014-09-19T08:08:53.163Z,62.33
2014-09-19T08:09:57.851Z,62.45
2014-09-19T08:11:02.541Z,61.67
2014-09-19T08:12:07.215Z,61.59
2014-09-19T08:13:11.904Z,61.7
2014-09-19T08:14:15.905Z,60.51
2014-09-19T08:15:20.892Z,60.23
2014-09-19T08:16:25.582Z,60.41
2014-09-19T08:17:30.272Z,59.61
2014-09-19T08:18:34.947Z,60.58
2014-09-19T08:19:39.636Z,60.19
2014-09-19T08:20:44.325Z,61.1
2014-09-19T08:21:49.313Z,61.57
2014-09-19T08:22:54.002Z,60.59
2014-09-19T08:23:58.692Z,61.99
2014-09-19T08:25:03.366Z,60.75
2014-09-19T08:26:08.352Z,61.45
2014-09-19T08:27:13.041Z,60.6
2014-09-19T08:28:17.715Z,60.86
2014-09-19T08:29:22.702Z,60.85
2014-09-19T08:30:27.391Z,60.84
2014-09-19T08:31:32.065Z,61
2014-09-19T08:32:36.755Z,61.69
2014-09-19T08:33:41.444Z,62.1
2014-09-19T08:34:46.118Z,62.48
2014-09-19T08:35:50.807Z,61.85
2014-09-19T08:36:55.497Z,59.77
2014-09-19T08:38:00.186Z,62.74
2014-09-19T08:39:05.188Z,63.14
2014-09-19T08:40:09.878Z,61.04
2014-09-19T08:41:14.567Z,60.37
2014-09-19T08:42:19.257Z,59.23
2014-09-19T08:43:23.931Z,59.83
2014-09-19T08:44:28.917Z,59.47
2014-09-19T08:45:33.905Z,57.29
2014-09-19T08:46:38.594Z,58
2014-09-19T08:47:43.268Z,59.05
2014-09-19T08:48:47.958Z,58.42
2014-09-19T08:49:52.647Z,59.79
2014-09-19T08:50:57.321Z,58.75
2014-09-19T08:52:02.307Z,58.86
2014-09-19T08:53:06.997Z,59.01
2014-09-19T08:54:11.686Z,59.14
2014-09-19T08:55:16.375Z,60.07
2014-09-19T08:56:21.064Z,59.44
2014-09-19T08:57:25.755Z,60
2014-09-19T08:58:30.445Z,60.74
2014-09-19T08:59:35.135Z,60.75
2014-09-19T09:00:40.105Z,60.54
2014-09-19T09:01:44.795Z,59.21
2014-09-19T09:02:49.484Z,60
2014-09-19T09:03:54.174Z,59.13
2014-09-19T09:04:58.863Z,58.25
2014-09-19T09:06:03.553Z,58.87
2014-09-19T09:07:08.242Z,60.18
2014-09-19T09:08:12.244Z,59.17
2014-09-19T09:09:16.934Z,58.88
2014-09-19T09:10:21.608Z,60.01
2014-09-19T09:11:26.296Z,60.3
2014-09-19T09:12:30.988Z,60.02
2014-09-19T09:13:35.677Z,59.57
2014-09-19T09:14:40.664Z,58.5
2014-09-19T09:15:45.650Z,58.1
2014-09-19T09:16:50.340Z,56.88
2014-09-19T09:17:55.029Z,57.39
2014-09-19T09:19:00.000Z,58.33
2014-09-19T09:20:04.689Z,58.47
2014-09-19T09:21:08.691Z,56.67
2014-09-19T09:22:13.380Z,57.24
2014-09-19T09:23:18.069Z,58.45
2014-09-19T09:24:22.775Z,57.4
2014-09-19T09:25:27.465Z,57.82
2014-09-19T09:26:32.155Z,59.07
2014-09-19T09:27:37.142Z,57.77
2014-09-19T09:28:41.831Z,57.47
2014-09-19T09:29:46.521Z,56.78
2014-09-19T09:30:51.195Z,56.49
2014-09-19T09:31:56.181Z,56.75
2014-09-19T09:33:01.166Z,57.25
2014-09-19T09:34:05.169Z,56.95
2014-09-19T09:35:09.858Z,57.57
2014-09-19T09:36:14.547Z,57.5
2014-09-19T09:37:19.534Z,58.37
2014-09-19T09:38:24.223Z,57.99
2014-09-19T09:39:28.913Z,56.15
2014-09-19T09:40:33.604Z,56.19
2014-09-19T09:41:38.278Z,56.9
2014-09-19T09:42:43.265Z,57.51
2014-09-19T09:43:47.984Z,56.33
2014-09-19T09:44:52.658Z,56.92
2014-09-19T09:45:57.349Z,56.97
2014-09-19T09:47:02.335Z,58.13
2014-09-19T09:48:07.025Z,57.41
2014-09-19T09:49:12.011Z,57.55
2014-09-19T09:50:16.699Z,58.52
2014-09-19T09:51:21.983Z,58.06
2014-09-19T09:52:26.672Z,57.38
2014-09-19T09:53:31.362Z,57.9
2014-09-19T09:54:36.053Z,56.54
2014-09-19T09:55:40.743Z,57.17
2014-09-19T09:56:45.432Z,57.71
2014-09-19T09:57:50.106Z,58.46
2014-09-19T09:58:54.797Z,59.31
2014-09-19T09:59:59.485Z,59.39
2014-09-19T10:01:04.176Z,59.04
2014-09-19T10:02:08.864Z,57.59
2014-09-19T10:03:13.554Z,57.85
2014-09-19T10:04:18.244Z,57.78
2014-09-19T10:05:22.933Z,57.42
2014-09-19T10:06:27.607Z,57.7
2014-09-19T10:07:32.593Z,58.72
2014-09-19T10:08:37.580Z,58
2014-09-19T10:09:42.269Z,57.97
2014-09-19T10:10:46.958Z,57.59
2014-09-19T10:11:51.649Z,56.92
2014-09-19T10:12:56.339Z,57.1
2014-09-19T10:14:01.621Z,57.24
2014-09-19T10:15:06.295Z,57.04
2014-09-19T10:16:11.282Z,56.97
2014-09-19T10:17:15.971Z,58.31
2014-09-19T10:18:20.661Z,57.49
2014-09-19T10:19:25.351Z,57.03
2014-09-19T10:20:30.041Z,57.37
2014-09-19T10:21:35.027Z,57.92
2014-09-19T10:22:39.716Z,57.96
2014-09-19T10:23:44.704Z,57.08
2014-09-19T10:24:49.437Z,56.25
2014-09-19T10:25:54.469Z,57.8
2014-09-19T10:26:59.202Z,57.71
2014-09-19T10:28:03.937Z,56.51
2014-09-19T10:29:08.669Z,57.58
2014-09-19T10:30:13.672Z,56.56
2014-09-19T10:31:18.376Z,56.65
2014-09-19T10:32:23.082Z,56.03
2014-09-19T10:33:27.787Z,55.9
2014-09-19T10:34:32.493Z,56.69
2014-09-19T10:35:37.195Z,56.28
2014-09-19T10:36:42.188Z,56.32
2014-09-19T10:37:46.882Z,56.37
2014-09-19T10:38:51.579Z,56.23
2014-09-19T10:39:56.286Z,55.67
2014-09-19T10:41:00.978Z,56.71
2014-09-19T10:42:05.670Z,56.21
2014-09-19T10:43:10.659Z,57.21
2014-09-19T10:44:15.350Z,57
2014-09-19T10:45:20.040Z,56.24
2014-09-19T10:46:24.731Z,56.81
2014-09-19T10:47:29.422Z,56.14
2014-09-19T10:48:34.112Z,53.7
2014-09-19T10:49:39.082Z,54.8
2014-09-19T10:50:43.773Z,53.97
2014-09-19T10:51:48.462Z,54.64
2014-09-19T10:52:53.449Z,51.96
2014-09-19T10:53:58.138Z,52.58
2014-09-19T10:55:02.828Z,53.91
2014-09-19T10:56:06.830Z,52.61
2014-09-19T10:57:11.519Z,53.57
2014-09-19T10:58:16.209Z,53.21
2014-09-19T10:59:20.898Z,52.81
2014-09-19T11:00:25.588Z,52.83
2014-09-19T11:01:30.277Z,52.92
2014-09-19T11:02:34.984Z,53.11
2014-09-19T11:03:39.674Z,53.3
2014-09-19T11:04:44.363Z,52.34
2014-09-19T11:05:49.053Z,52.69
2014-09-19T11:06:53.742Z,53.14
2014-09-19T11:07:58.432Z,52.31
2014-09-19T11:09:03.121Z,52.61
2014-09-19T11:10:07.811Z,52.94
2014-09-19T11:11:12.485Z,53.86
2014-09-19T11:12:17.488Z,54.06
2014-09-19T11:13:22.458Z,51
2014-09-19T11:14:27.148Z,51.53
2014-09-19T11:15:31.853Z,52.54
2014-09-19T11:16:36.543Z,51.97
2014-09-19T11:17:41.232Z,51.64
2014-09-19T11:18:45.922Z,52.49
2014-09-19T11:19:50.595Z,52.5
2014-09-19T11:20:55.285Z,51.63
2014-09-19T11:22:00.271Z,50.67
2014-09-19T11:23:04.961Z,52.16
2014-09-19T11:24:09.649Z,51.02
2014-09-19T11:25:14.339Z,50.69
2014-09-19T11:26:19.028Z,51.35
2014-09-19T11:27:23.718Z,50.09
2014-09-19T11:28:28.704Z,50.48
2014-09-19T11:29:33.394Z,50.51
2014-09-19T11:30:38.084Z,49.82
2014-09-19T11:31:42.775Z,49.12
2014-09-19T11:32:47.761Z,49.26
2014-09-19T11:33:52.451Z,50.1
2014-09-19T11:34:57.140Z,50.07
2014-09-19T11:36:02.126Z,49.9
2014-09-19T11:37:06.800Z,50.58
2014-09-19T11:38:11.505Z,50.08
2014-09-19T11:39:16.507Z,49.6
2014-09-19T11:40:21.198Z,50.92
2014-09-19T11:41:25.886Z,51.44
2014-09-19T11:42:30.577Z,53.32
2014-09-19T11:43:35.265Z,50.24
2014-09-19T11:44:39.955Z,50.74
2014-09-19T11:45:44.644Z,49.83
2014-09-19T11:46:49.334Z,50.46
2014-09-19T11:47:54.023Z,50.15
2014-09-19T11:48:58.713Z,53.42
2014-09-19T11:50:03.402Z,51.1
2014-09-19T11:51:08.092Z,50.8
2014-09-19T11:52:12.781Z,51.46
2014-09-19T11:53:17.471Z,50.59
2014-09-19T11:54:22.160Z,50.48
2014-09-19T11:55:26.850Z,50.33
2014-09-19T11:56:31.539Z,51.33
2014-09-19T11:57:36.231Z,51.34
2014-09-19T11:58:41.217Z,51.06
2014-09-19T11:59:45.921Z,51.3
2014-09-19T12:00:50.627Z,50.56
2014-09-19T12:01:55.316Z,49.97
2014-09-19T12:03:00.022Z,49.88
2014-09-19T12:04:05.009Z,50.54
2014-09-19T12:05:09.994Z,50.7
2014-09-19T12:06:14.683Z,51.92
2014-09-19T12:07:19.670Z,50.63
2014-09-19T12:08:24.359Z,51.42
2014-09-19T12:09:29.346Z,50.81
2014-09-19T12:10:34.034Z,51.16
2014-09-19T12:11:38.727Z,51.56
2014-09-19T12:12:43.415Z,51.35
2014-09-19T12:13:48.105Z,48.57
2014-09-19T12:14:52.794Z,49.3
2014-09-19T12:15:57.781Z,48.93
2014-09-19T12:17:02.470Z,49.94
2014-09-19T12:18:07.160Z,49.11
2014-09-19T12:19:11.849Z,50.05
2014-09-19T12:20:16.539Z,49.46
2014-09-19T12:21:21.212Z,49.12
2014-09-19T12:22:25.902Z,50.29
2014-09-19T12:23:30.607Z,51.03
2014-09-19T12:24:35.594Z,50.54
2014-09-19T12:25:40.284Z,50.79
2014-09-19T12:26:44.973Z,50.75
2014-09-19T12:27:49.679Z,51.01
2014-09-19T12:28:54.369Z,50.69
2014-09-19T12:29:59.059Z,51.8
2014-09-19T12:31:04.045Z,52.58
2014-09-19T12:32:08.734Z,51.02
2014-09-19T12:33:13.721Z,51.48
2014-09-19T12:34:18.410Z,51.28
2014-09-19T12:35:23.100Z,50.16
2014-09-19T12:36:27.789Z,51.98
2014-09-19T12:37:32.479Z,51.99
2014-09-19T12:38:37.465Z,51.28
2014-09-19T12:39:42.156Z,51.84
2014-09-19T12:40:47.141Z,50.53
2014-09-19T12:41:51.831Z,51.54
2014-09-19T12:42:56.520Z,50.53
2014-09-19T12:44:01.506Z,50.4
2014-09-19T12:45:06.197Z,51.58
2014-09-19T12:46:10.886Z,52
2014-09-19T12:47:15.873Z,50.44
2014-09-19T12:48:20.562Z,50.84
2014-09-19T12:49:25.252Z,50.48
2014-09-19T12:50:29.941Z,51.99
2014-09-19T12:51:34.631Z,51.69
2014-09-19T12:52:39.336Z,52.48
2014-09-19T12:53:44.026Z,51.18
2014-09-19T12:54:48.715Z,51.94
2014-09-19T12:55:53.405Z,51.33
2014-09-19T12:56:58.094Z,50.56
2014-09-19T12:58:02.784Z,51.23
2014-09-19T12:59:07.490Z,51.4
2014-09-19T13:00:12.179Z,52.39
2014-09-19T13:01:16.869Z,52.33
2014-09-19T13:02:21.558Z,52.76
2014-09-19T13:03:26.263Z,52.01
2014-09-19T13:04:30.968Z,52.93
2014-09-19T13:05:35.658Z,54.28
2014-09-19T13:06:40.347Z,51.99
2014-09-19T13:07:45.037Z,52.6
2014-09-19T13:08:50.023Z,51.74
2014-09-19T13:09:54.713Z,52.44
2014-09-19T13:10:59.402Z,52.65
2014-09-19T13:12:04.092Z,53.55
2014-09-19T13:13:08.781Z,52.8
2014-09-19T13:14:13.471Z,54.24
2014-09-19T13:15:18.160Z,54.02
2014-09-19T13:16:22.850Z,52.47
2014-09-19T13:17:27.852Z,52.77
2014-09-19T13:18:32.540Z,53.12
2014-09-19T13:19:37.232Z,52.8
2014-09-19T13:20:42.218Z,52.03
2014-09-19T13:21:47.205Z,52.77
2014-09-19T13:22:52.191Z,52.04
2014-09-19T13:23:56.880Z,52.87
2014-09-19T13:25:01.570Z,52.79
2014-09-19T13:26:06.555Z,52.01
2014-09-19T13:27:11.542Z,51.43
2014-09-19T13:28:15.544Z,51.48
2014-09-19T13:29:19.546Z,51.68
2014-09-19T13:30:24.533Z,52.07
2014-09-19T13:31:29.223Z,52.17
2014-09-19T13:32:33.913Z,52.36
2014-09-19T13:33:38.602Z,51.46
2014-09-19T13:34:43.292Z,52.8
2014-09-19T13:35:47.981Z,53.06
2014-09-19T13:36:52.671Z,52.41
2014-09-19T13:37:57.360Z,52.73
2014-09-19T13:39:02.051Z,53.15
2014-09-19T13:40:06.739Z,53.31
2014-09-19T13:41:11.727Z,53.3
2014-09-19T13:42:16.713Z,53.24
2014-09-19T13:43:21.403Z,53.48
2014-09-19T13:44:26.092Z,52.6
2014-09-19T13:45:30.782Z,52.7
2014-09-19T13:46:35.471Z,52.82
2014-09-19T13:47:40.161Z,53.05
2014-09-19T13:48:44.850Z,51.71
2014-09-19T13:49:49.540Z,51.87
2014-09-19T13:50:54.229Z,52.82
2014-09-19T13:51:58.918Z,52.66
2014-09-19T13:53:03.624Z,52.81
2014-09-19T13:54:08.312Z,54.05
2014-09-19T13:55:13.003Z,54.74
2014-09-19T13:56:17.692Z,54.78
2014-09-19T13:57:22.383Z,54.68
2014-09-19T13:58:27.071Z,55.19